Terminal Aerodrome Forecast
Issued by NWS

Home | Current Version | Previous Version | Text Only | Print | Product List | Glossary Off
Versions: 1 2 3 4 5 6 7 8 9 10 11 12 13 14 15 16 17 18 19 20 21 22 23 24 25 26 27 28

000
FTUS43 KLOT 260531
TAFORD
TAF
KORD 260531Z 2606/2712 VRB03KT P6SM SCT250
     FM261800 11005KT P6SM FEW045
     FM270100 15003KT P6SM SKC
     FM270500 24002KT P6SM SKC=

USA.gov is the U.S. government's official web portal to all federal, state and local government web resources and services.